sensor_id;sensor_type;location;lat;lon;timestamp;pressure;altitude;pressure_sealevel;temperature;humidity
64711;BME280;51139;45.626;6.850;2024-02-26T00:01:24;80367.16;;;-1.18;100.00
64711;BME280;51139;45.626;6.850;2024-02-26T00:03:50;80354.94;;;-0.84;100.00
64711;BME280;51139;45.626;6.850;2024-02-26T00:06:15;80354.59;;;-1.45;100.00
64711;BME280;51139;45.626;6.850;2024-02-26T00:08:41;80360.81;;;-1.56;100.00
64711;BME280;51139;45.626;6.850;2024-02-26T00:11:06;80354.50;;;-1.06;100.00
64711;BME280;51139;45.626;6.850;2024-02-26T00:13:32;80347.19;;;-1.00;100.00
64711;BME280;51139;45.626;6.850;2024-02-26T00:15:57;80336.50;;;-1.20;100.00
64711;BME280;51139;45.626;6.850;2024-02-26T00:18:22;80340.84;;;-0.74;100.00
64711;BME280;51139;45.626;6.850;2024-02-26T00:20:48;80338.81;;;-0.83;100.00
64711;BME280;51139;45.626;6.850;2024-02-26T00:23:15;80326.72;;;-0.96;100.00
64711;BME280;51139;45.626;6.850;2024-02-26T00:25:40;80330.13;;;-0.78;100.00
64711;BME280;51139;45.626;6.850;2024-02-26T00:28:08;80329.59;;;-1.25;100.00
64711;BME280;51139;45.626;6.850;2024-02-26T00:30:33;80328.56;;;-1.22;100.00
64711;BME280;51139;45.626;6.850;2024-02-26T00:32:58;80316.09;;;-0.82;100.00
64711;BME280;51139;45.626;6.850;2024-02-26T00:35:24;80317.34;;;-0.91;100.00
64711;BME280;51139;45.626;6.850;2024-02-26T00:37:49;80323.41;;;-0.89;100.00
64711;BME280;51139;45.626;6.850;2024-02-26T00:40:15;80312.75;;;-0.67;100.00
64711;BME280;51139;45.626;6.850;2024-02-26T00:42:40;80299.63;;;-0.44;100.00
64711;BME280;51139;45.626;6.850;2024-02-26T00:45:11;80307.47;;;-0.85;100.00
64711;BME280;51139;45.626;6.850;2024-02-26T00:47:36;80300.16;;;-0.79;100.00
64711;BME280;51139;45.626;6.850;2024-02-26T00:50:01;80291.56;;;-0.64;100.00
64711;BME280;51139;45.626;6.850;2024-02-26T00:52:27;80290.72;;;-0.66;100.00
64711;BME280;51139;45.626;6.850;2024-02-26T00:54:52;80297.34;;;-0.73;100.00
64711;BME280;51139;45.626;6.850;2024-02-26T00:57:18;80295.50;;;-0.55;100.00
64711;BME280;51139;45.626;6.850;2024-02-26T00:59:43;80287.00;;;-0.55;100.00
64711;BME280;51139;45.626;6.850;2024-02-26T01:02:09;80278.19;;;-0.93;100.00
64711;BME280;51139;45.626;6.850;2024-02-26T01:04:34;80282.88;;;-1.40;100.00
64711;BME280;51139;45.626;6.850;2024-02-26T01:06:59;80277.13;;;-0.90;100.00
64711;BME280;51139;45.626;6.850;2024-02-26T01:09:25;80265.72;;;-0.95;100.00
64711;BME280;51139;45.626;6.850;2024-02-26T01:11:50;80269.72;;;-0.94;100.00
64711;BME280;51139;45.626;6.850;2024-02-26T01:14:16;80273.81;;;-0.83;100.00
64711;BME280;51139;45.626;6.850;2024-02-26T01:16:41;80265.47;;;-0.81;100.00
64711;BME280;51139;45.626;6.850;2024-02-26T01:19:07;80256.31;;;-0.90;100.00
64711;BME280;51139;45.626;6.850;2024-02-26T01:21:32;80264.41;;;-0.70;100.00
64711;BME280;51139;45.626;6.850;2024-02-26T01:23:57;80248.16;;;-0.53;100.00
64711;BME280;51139;45.626;6.850;2024-02-26T01:26:23;80257.94;;;-1.03;100.00
64711;BME280;51139;45.626;6.850;2024-02-26T01:28:48;80260.94;;;-0.73;100.00
64711;BME280;51139;45.626;6.850;2024-02-26T01:31:14;80256.19;;;-0.59;100.00
64711;BME280;51139;45.626;6.850;2024-02-26T01:33:39;80256.44;;;-0.72;100.00
64711;BME280;51139;45.626;6.850;2024-02-26T01:36:05;80258.38;;;-0.81;100.00
64711;BME280;51139;45.626;6.850;2024-02-26T01:38:31;80259.22;;;-0.78;100.00
64711;BME280;51139;45.626;6.850;2024-02-26T01:40:56;80273.38;;;-0.97;100.00
64711;BME280;51139;45.626;6.850;2024-02-26T01:43:22;80254.72;;;-0.78;100.00
64711;BME280;51139;45.626;6.850;2024-02-26T01:45:47;80249.59;;;-0.93;100.00
64711;BME280;51139;45.626;6.850;2024-02-26T01:48:13;80242.81;;;-0.89;100.00
64711;BME280;51139;45.626;6.850;2024-02-26T01:50:40;80232.41;;;-0.89;100.00
64711;BME280;51139;45.626;6.850;2024-02-26T01:53:06;80236.19;;;-0.56;100.00
64711;BME280;51139;45.626;6.850;2024-02-26T01:55:32;80230.09;;;-0.51;100.00
64711;BME280;51139;45.626;6.850;2024-02-26T01:57:59;80229.84;;;-0.63;100.00
64711;BME280;51139;45.626;6.850;2024-02-26T02:00:24;80235.47;;;-0.49;100.00
64711;BME280;51139;45.626;6.850;2024-02-26T02:02:50;80232.88;;;-0.75;100.00
64711;BME280;51139;45.626;6.850;2024-02-26T02:05:17;80244.34;;;-0.85;100.00
64711;BME280;51139;45.626;6.850;2024-02-26T02:07:43;80229.53;;;-0.67;100.00
64711;BME280;51139;45.626;6.850;2024-02-26T02:10:09;80239.13;;;-0.52;100.00
64711;BME280;51139;45.626;6.850;2024-02-26T02:12:35;80239.50;;;-0.56;100.00
64711;BME280;51139;45.626;6.850;2024-02-26T02:15:04;80237.81;;;-0.61;100.00
64711;BME280;51139;45.626;6.850;2024-02-26T02:17:30;80250.75;;;-0.79;100.00
64711;BME280;51139;45.626;6.850;2024-02-26T02:19:56;80236.75;;;-0.33;100.00
64711;BME280;51139;45.626;6.850;2024-02-26T02:22:21;80231.00;;;-0.82;100.00
64711;BME280;51139;45.626;6.850;2024-02-26T02:24:48;80238.25;;;-0.80;100.00
64711;BME280;51139;45.626;6.850;2024-02-26T02:27:14;80226.59;;;-0.71;100.00
64711;BME280;51139;45.626;6.850;2024-02-26T02:29:39;80233.69;;;-0.72;100.00
64711;BME280;51139;45.626;6.850;2024-02-26T02:32:06;80230.34;;;-0.32;100.00
64711;BME280;51139;45.626;6.850;2024-02-26T02:34:32;80231.75;;;-0.38;100.00
64711;BME280;51139;45.626;6.850;2024-02-26T02:36:59;80231.63;;;0.03;100.00
64711;BME280;51139;45.626;6.850;2024-02-26T02:39:24;80234.63;;;-0.26;100.00
64711;BME280;51139;45.626;6.850;2024-02-26T02:41:50;80223.75;;;-0.91;100.00
64711;BME280;51139;45.626;6.850;2024-02-26T02:44:15;80232.81;;;-0.67;100.00
64711;BME280;51139;45.626;6.850;2024-02-26T02:46:40;80236.38;;;-0.54;100.00
64711;BME280;51139;45.626;6.850;2024-02-26T02:49:09;80240.75;;;-0.32;100.00
64711;BME280;51139;45.626;6.850;2024-02-26T02:51:38;80234.09;;;-0.50;100.00
64711;BME280;51139;45.626;6.850;2024-02-26T02:54:03;80256.47;;;-0.80;100.00
64711;BME280;51139;45.626;6.850;2024-02-26T02:56:29;80231.28;;;-1.03;100.00
64711;BME280;51139;45.626;6.850;2024-02-26T02:58:54;80230.56;;;-0.96;100.00
64711;BME280;51139;45.626;6.850;2024-02-26T03:01:19;80236.38;;;-0.80;100.00
64711;BME280;51139;45.626;6.850;2024-02-26T03:03:45;80253.03;;;-0.57;100.00
64711;BME280;51139;45.626;6.850;2024-02-26T03:06:10;80240.88;;;-1.21;100.00
64711;BME280;51139;45.626;6.850;2024-02-26T03:08:35;80248.53;;;-1.23;100.00
64711;BME280;51139;45.626;6.850;2024-02-26T03:11:05;80245.66;;;-1.02;100.00
64711;BME280;51139;45.626;6.850;2024-02-26T03:13:31;80257.13;;;-1.05;100.00
64711;BME280;51139;45.626;6.850;2024-02-26T03:15:56;80252.81;;;-0.77;100.00
64711;BME280;51139;45.626;6.850;2024-02-26T03:18:22;80247.97;;;-1.14;100.00
64711;BME280;51139;45.626;6.850;2024-02-26T03:20:48;80251.38;;;-1.04;100.00
64711;BME280;51139;45.626;6.850;2024-02-26T03:23:14;80242.97;;;-1.20;100.00
64711;BME280;51139;45.626;6.850;2024-02-26T03:25:45;80252.72;;;-1.28;100.00
64711;BME280;51139;45.626;6.850;2024-02-26T03:28:13;80252.00;;;-0.88;100.00
64711;BME280;51139;45.626;6.850;2024-02-26T03:30:39;80259.94;;;-1.19;100.00
64711;BME280;51139;45.626;6.850;2024-02-26T03:33:04;80250.84;;;-1.02;100.00
64711;BME280;51139;45.626;6.850;2024-02-26T03:35:29;80253.75;;;-1.31;100.00
64711;BME280;51139;45.626;6.850;2024-02-26T03:37:55;80257.81;;;-1.61;100.00
64711;BME280;51139;45.626;6.850;2024-02-26T03:40:20;80263.63;;;-1.37;100.00
64711;BME280;51139;45.626;6.850;2024-02-26T03:42:46;80259.91;;;-1.11;100.00
64711;BME280;51139;45.626;6.850;2024-02-26T03:45:11;80244.19;;;-1.21;100.00
64711;BME280;51139;45.626;6.850;2024-02-26T03:47:39;80243.09;;;-1.10;100.00
64711;BME280;51139;45.626;6.850;2024-02-26T03:50:06;80243.19;;;-1.33;100.00
64711;BME280;51139;45.626;6.850;2024-02-26T03:52:32;80257.38;;;-1.75;100.00
64711;BME280;51139;45.626;6.850;2024-02-26T03:54:57;80243.25;;;-1.08;100.00
64711;BME280;51139;45.626;6.850;2024-02-26T03:57:22;80243.19;;;-1.33;100.00
64711;BME280;51139;45.626;6.850;2024-02-26T03:59:48;80242.41;;;-1.51;100.00
64711;BME280;51139;45.626;6.850;2024-02-26T04:02:13;80235.91;;;-1.27;100.00
64711;BME280;51139;45.626;6.850;2024-02-26T04:04:38;80243.41;;;-1.06;100.00
64711;BME280;51139;45.626;6.850;2024-02-26T04:07:04;80245.41;;;-0.89;100.00
64711;BME280;51139;45.626;6.850;2024-02-26T04:09:31;80240.97;;;-1.37;100.00
64711;BME280;51139;45.626;6.850;2024-02-26T04:11:57;80255.41;;;-1.10;100.00
64711;BME280;51139;45.626;6.850;2024-02-26T04:14:22;80243.94;;;-1.07;100.00
64711;BME280;51139;45.626;6.850;2024-02-26T04:16:47;80250.63;;;-0.89;100.00
64711;BME280;51139;45.626;6.850;2024-02-26T04:19:16;80255.63;;;-0.83;100.00
64711;BME280;51139;45.626;6.850;2024-02-26T04:21:43;80266.97;;;-1.04;100.00
64711;BME280;51139;45.626;6.850;2024-02-26T04:24:08;80274.09;;;-1.04;100.00
64711;BME280;51139;45.626;6.850;2024-02-26T04:26:34;80271.88;;;-0.75;100.00
64711;BME280;51139;45.626;6.850;2024-02-26T04:28:59;80287.38;;;-0.59;100.00
64711;BME280;51139;45.626;6.850;2024-02-26T04:31:25;80283.53;;;-0.83;100.00
64711;BME280;51139;45.626;6.850;2024-02-26T04:33:51;80283.16;;;-0.80;100.00
64711;BME280;51139;45.626;6.850;2024-02-26T04:36:16;80288.31;;;-1.05;100.00
64711;BME280;51139;45.626;6.850;2024-02-26T04:38:45;80295.69;;;-0.94;100.00
64711;BME280;51139;45.626;6.850;2024-02-26T04:41:11;80294.72;;;-1.14;100.00
64711;BME280;51139;45.626;6.850;2024-02-26T04:43:37;80292.75;;;-1.39;100.00
64711;BME280;51139;45.626;6.850;2024-02-26T04:46:07;80284.41;;;-2.01;100.00
64711;BME280;51139;45.626;6.850;2024-02-26T04:48:34;80290.91;;;-1.62;100.00
64711;BME280;51139;45.626;6.850;2024-02-26T04:50:59;80292.84;;;-2.01;100.00
64711;BME280;51139;45.626;6.850;2024-02-26T04:53:24;80301.84;;;-1.94;100.00
64711;BME280;51139;45.626;6.850;2024-02-26T04:55:50;80304.09;;;-1.75;100.00
64711;BME280;51139;45.626;6.850;2024-02-26T04:58:15;80309.81;;;-2.23;100.00
64711;BME280;51139;45.626;6.850;2024-02-26T05:00:40;80309.63;;;-1.79;100.00
64711;BME280;51139;45.626;6.850;2024-02-26T05:03:06;80297.69;;;-1.82;100.00
64711;BME280;51139;45.626;6.850;2024-02-26T05:05:32;80302.72;;;-1.92;100.00
64711;BME280;51139;45.626;6.850;2024-02-26T05:07:58;80300.41;;;-1.64;100.00
64711;BME280;51139;45.626;6.850;2024-02-26T05:10:23;80294.25;;;-1.92;100.00
64711;BME280;51139;45.626;6.850;2024-02-26T05:12:49;80297.72;;;-1.97;100.00
64711;BME280;51139;45.626;6.850;2024-02-26T05:15:14;80304.13;;;-1.98;100.00
64711;BME280;51139;45.626;6.850;2024-02-26T05:17:44;80309.97;;;-1.82;100.00
64711;BME280;51139;45.626;6.850;2024-02-26T05:20:09;80314.31;;;-2.47;100.00
64711;BME280;51139;45.626;6.850;2024-02-26T05:22:35;80321.41;;;-2.63;100.00
64711;BME280;51139;45.626;6.850;2024-02-26T05:25:00;80314.63;;;-2.66;100.00
64711;BME280;51139;45.626;6.850;2024-02-26T05:27:25;80311.53;;;-2.49;100.00
64711;BME280;51139;45.626;6.850;2024-02-26T05:29:51;80308.78;;;-2.43;100.00
64711;BME280;51139;45.626;6.850;2024-02-26T05:32:19;80302.53;;;-1.94;100.00
64711;BME280;51139;45.626;6.850;2024-02-26T05:34:45;80307.72;;;-1.86;100.00
64711;BME280;51139;45.626;6.850;2024-02-26T05:37:10;80307.22;;;-2.00;100.00
64711;BME280;51139;45.626;6.850;2024-02-26T05:39:36;80310.13;;;-1.80;100.00
64711;BME280;51139;45.626;6.850;2024-02-26T05:42:02;80305.94;;;-1.60;100.00
64711;BME280;51139;45.626;6.850;2024-02-26T05:44:27;80295.13;;;-1.97;100.00
64711;BME280;51139;45.626;6.850;2024-02-26T05:46:53;80298.53;;;-1.79;100.00
64711;BME280;51139;45.626;6.850;2024-02-26T05:49:18;80297.28;;;-1.47;100.00
64711;BME280;51139;45.626;6.850;2024-02-26T05:51:43;80300.03;;;-1.45;100.00
64711;BME280;51139;45.626;6.850;2024-02-26T05:54:09;80291.13;;;-2.06;100.00
64711;BME280;51139;45.626;6.850;2024-02-26T05:56:35;80280.94;;;-2.20;100.00
64711;BME280;51139;45.626;6.850;2024-02-26T05:59:00;80284.91;;;-2.03;100.00
64711;BME280;51139;45.626;6.850;2024-02-26T06:01:26;80295.13;;;-2.28;100.00
64711;BME280;51139;45.626;6.850;2024-02-26T06:03:51;80300.16;;;-2.15;100.00
64711;BME280;51139;45.626;6.850;2024-02-26T06:06:17;80282.16;;;-2.44;100.00
64711;BME280;51139;45.626;6.850;2024-02-26T06:08:43;80285.09;;;-2.32;100.00
64711;BME280;51139;45.626;6.850;2024-02-26T06:11:08;80288.56;;;-2.45;100.00
64711;BME280;51139;45.626;6.850;2024-02-26T06:13:35;80269.53;;;-2.55;100.00
64711;BME280;51139;45.626;6.850;2024-02-26T06:16:00;80280.78;;;-2.45;100.00
64711;BME280;51139;45.626;6.850;2024-02-26T06:18:26;80280.59;;;-2.08;100.00
64711;BME280;51139;45.626;6.850;2024-02-26T06:20:51;80282.66;;;-2.07;100.00
64711;BME280;51139;45.626;6.850;2024-02-26T06:23:17;80276.97;;;-2.28;100.00
64711;BME280;51139;45.626;6.850;2024-02-26T06:25:42;80282.16;;;-2.13;100.00
64711;BME280;51139;45.626;6.850;2024-02-26T06:28:08;80275.06;;;-2.20;100.00
64711;BME280;51139;45.626;6.850;2024-02-26T06:30:34;80266.00;;;-1.80;100.00
64711;BME280;51139;45.626;6.850;2024-02-26T06:32:59;80268.44;;;-1.82;100.00
64711;BME280;51139;45.626;6.850;2024-02-26T06:35:25;80260.53;;;-2.08;100.00
64711;BME280;51139;45.626;6.850;2024-02-26T06:37:50;80264.94;;;-1.69;100.00
64711;BME280;51139;45.626;6.850;2024-02-26T06:40:18;80276.72;;;-1.60;100.00
64711;BME280;51139;45.626;6.850;2024-02-26T06:42:44;80272.44;;;-1.25;100.00
64711;BME280;51139;45.626;6.850;2024-02-26T06:45:09;80280.25;;;-1.25;100.00
64711;BME280;51139;45.626;6.850;2024-02-26T06:47:35;80284.88;;;-1.87;100.00
64711;BME280;51139;45.626;6.850;2024-02-26T06:50:00;80290.97;;;-2.31;100.00
64711;BME280;51139;45.626;6.850;2024-02-26T06:52:26;80293.22;;;-2.20;100.00
64711;BME280;51139;45.626;6.850;2024-02-26T06:54:52;80303.38;;;-1.68;100.00
64711;BME280;51139;45.626;6.850;2024-02-26T06:57:19;80311.97;;;-1.50;100.00
64711;BME280;51139;45.626;6.850;2024-02-26T06:59:45;80306.69;;;-1.75;100.00
64711;BME280;51139;45.626;6.850;2024-02-26T08:59:58;80332.69;;;-0.70;100.00
64711;BME280;51139;45.626;6.850;2024-02-26T09:02:23;80339.78;;;-1.11;100.00
64711;BME280;51139;45.626;6.850;2024-02-26T09:04:48;80344.38;;;-0.94;100.00
64711;BME280;51139;45.626;6.850;2024-02-26T09:07:16;80353.03;;;-0.84;100.00
64711;BME280;51139;45.626;6.850;2024-02-26T09:09:41;80345.09;;;-0.94;100.00
64711;BME280;51139;45.626;6.850;2024-02-26T09:12:07;80348.06;;;-1.05;100.00
64711;BME280;51139;45.626;6.850;2024-02-26T09:14:32;80345.09;;;-1.01;100.00
64711;BME280;51139;45.626;6.850;2024-02-26T09:16:57;80338.69;;;-1.00;100.00
64711;BME280;51139;45.626;6.850;2024-02-26T09:19:24;80341.53;;;-0.73;100.00
64711;BME280;51139;45.626;6.850;2024-02-26T09:21:50;80348.03;;;-1.77;100.00
64711;BME280;51139;45.626;6.850;2024-02-26T09:24:16;80344.84;;;-1.29;100.00
64711;BME280;51139;45.626;6.850;2024-02-26T09:26:41;80343.16;;;-1.42;100.00
64711;BME280;51139;45.626;6.850;2024-02-26T09:29:06;80352.66;;;-1.29;100.00
64711;BME280;51139;45.626;6.850;2024-02-26T09:31:33;80346.06;;;-1.30;100.00
64711;BME280;51139;45.626;6.850;2024-02-26T09:33:59;80354.56;;;-1.37;100.00
64711;BME280;51139;45.626;6.850;2024-02-26T09:36:24;80355.75;;;-1.38;100.00
64711;BME280;51139;45.626;6.850;2024-02-26T09:38:50;80352.09;;;-0.71;100.00
64711;BME280;51139;45.626;6.850;2024-02-26T09:41:15;80355.66;;;-0.51;100.00
64711;BME280;51139;45.626;6.850;2024-02-26T09:43:44;80354.75;;;-0.79;100.00
64711;BME280;51139;45.626;6.850;2024-02-26T09:46:11;80343.88;;;-0.93;100.00
64711;BME280;51139;45.626;6.850;2024-02-26T09:48:37;80335.84;;;-0.46;100.00
64711;BME280;51139;45.626;6.850;2024-02-26T09:51:03;80341.69;;;-0.05;100.00
64711;BME280;51139;45.626;6.850;2024-02-26T09:53:30;80344.88;;;-0.47;100.00
64711;BME280;51139;45.626;6.850;2024-02-26T09:55:57;80340.06;;;-0.51;100.00
64711;BME280;51139;45.626;6.850;2024-02-26T09:58:23;80351.13;;;-0.50;100.00
64711;BME280;51139;45.626;6.850;2024-02-26T10:00:52;80350.81;;;-0.54;100.00
64711;BME280;51139;45.626;6.850;2024-02-26T10:03:21;80350.53;;;-0.66;100.00
64711;BME280;51139;45.626;6.850;2024-02-26T10:05:48;80341.41;;;-0.17;100.00
64711;BME280;51139;45.626;6.850;2024-02-26T10:08:15;80339.16;;;0.13;100.00
64711;BME280;51139;45.626;6.850;2024-02-26T10:10:44;80336.13;;;-0.26;100.00
64711;BME280;51139;45.626;6.850;2024-02-26T10:13:10;80345.28;;;-0.99;100.00
64711;BME280;51139;45.626;6.850;2024-02-26T10:15:37;80350.72;;;-1.28;100.00
64711;BME280;51139;45.626;6.850;2024-02-26T10:18:06;80351.25;;;-0.74;100.00
64711;BME280;51139;45.626;6.850;2024-02-26T10:20:32;80350.78;;;-0.47;100.00
64711;BME280;51139;45.626;6.850;2024-02-26T10:22:58;80336.38;;;-0.15;100.00
64711;BME280;51139;45.626;6.850;2024-02-26T10:25:23;80333.94;;;-0.38;100.00
64711;BME280;51139;45.626;6.850;2024-02-26T10:27:49;80322.41;;;-0.27;100.00
64711;BME280;51139;45.626;6.850;2024-02-26T10:30:19;80330.63;;;-0.38;100.00
64711;BME280;51139;45.626;6.850;2024-02-26T10:32:45;80332.00;;;0.39;100.00
64711;BME280;51139;45.626;6.850;2024-02-26T10:35:12;80331.53;;;0.33;100.00
64711;BME280;51139;45.626;6.850;2024-02-26T10:37:37;80333.94;;;0.13;100.00
64711;BME280;51139;45.626;6.850;2024-02-26T10:40:02;80326.41;;;0.25;100.00
64711;BME280;51139;45.626;6.850;2024-02-26T10:42:28;80338.13;;;0.34;100.00
64711;BME280;51139;45.626;6.850;2024-02-26T10:44:55;80336.91;;;0.78;100.00
64711;BME280;51139;45.626;6.850;2024-02-26T10:47:21;80333.44;;;0.14;100.00
64711;BME280;51139;45.626;6.850;2024-02-26T10:49:47;80335.63;;;0.18;100.00
64711;BME280;51139;45.626;6.850;2024-02-26T10:52:15;80344.94;;;0.04;100.00
64711;BME280;51139;45.626;6.850;2024-02-26T10:54:47;80353.91;;;0.61;99.59
64711;BME280;51139;45.626;6.850;2024-02-26T10:57:13;80346.94;;;0.64;89.94
64711;BME280;51139;45.626;6.850;2024-02-26T10:59:42;80346.16;;;0.03;100.00
64711;BME280;51139;45.626;6.850;2024-02-26T11:02:10;80349.38;;;-0.15;100.00
64711;BME280;51139;45.626;6.850;2024-02-26T11:04:36;80335.66;;;0.61;100.00
64711;BME280;51139;45.626;6.850;2024-02-26T11:07:03;80333.22;;;0.38;98.51
64711;BME280;51139;45.626;6.850;2024-02-26T11:09:30;80340.59;;;0.92;96.63
64711;BME280;51139;45.626;6.850;2024-02-26T11:11:57;80323.16;;;0.60;92.42
64711;BME280;51139;45.626;6.850;2024-02-26T11:14:23;80326.53;;;0.52;93.14
64711;BME280;51139;45.626;6.850;2024-02-26T11:16:51;80328.84;;;0.48;89.85
64711;BME280;51139;45.626;6.850;2024-02-26T11:19:17;80331.84;;;0.37;90.76
64711;BME280;51139;45.626;6.850;2024-02-26T11:21:43;80325.16;;;0.51;91.81
64711;BME280;51139;45.626;6.850;2024-02-26T11:24:12;80333.53;;;0.85;92.19
64711;BME280;51139;45.626;6.850;2024-02-26T11:26:43;80326.16;;;0.73;91.16
64711;BME280;51139;45.626;6.850;2024-02-26T11:29:14;80323.09;;;0.85;89.66
64711;BME280;51139;45.626;6.850;2024-02-26T11:31:41;80325.47;;;0.73;93.67
64711;BME280;51139;45.626;6.850;2024-02-26T11:34:08;80323.22;;;0.52;88.01
64711;BME280;51139;45.626;6.850;2024-02-26T11:36:34;80310.97;;;0.62;85.29
64711;BME280;51139;45.626;6.850;2024-02-26T11:39:01;80309.69;;;0.53;87.66
64711;BME280;51139;45.626;6.850;2024-02-26T11:41:27;80315.88;;;0.58;89.30
64711;BME280;51139;45.626;6.850;2024-02-26T11:43:57;80307.84;;;0.81;87.59
64711;BME280;51139;45.626;6.850;2024-02-26T11:46:39;80306.94;;;0.86;86.72
64711;BME280;51139;45.626;6.850;2024-02-26T11:51:51;80292.22;;;0.81;84.38
64711;BME280;51139;45.626;6.850;2024-02-26T12:00:14;80281.84;;;1.09;80.53
64711;BME280;51139;45.626;6.850;2024-02-26T12:02:50;80280.94;;;0.96;76.73
64711;BME280;51139;45.626;6.850;2024-02-26T12:05:23;80280.47;;;1.08;76.97
64711;BME280;51139;45.626;6.850;2024-02-26T12:07:54;80276.13;;;0.75;76.92
64711;BME280;51139;45.626;6.850;2024-02-26T12:10:31;80280.66;;;1.20;78.35
64711;BME280;51139;45.626;6.850;2024-02-26T12:13:07;80287.59;;;1.07;73.35
64711;BME280;51139;45.626;6.850;2024-02-26T12:15:36;80285.91;;;1.47;74.97
64711;BME280;51139;45.626;6.850;2024-02-26T12:18:04;80269.75;;;1.31;72.28
64711;BME280;51139;45.626;6.850;2024-02-26T12:20:30;80271.25;;;1.24;72.01
64711;BME280;51139;45.626;6.850;2024-02-26T12:22:55;80266.38;;;0.76;72.99
64711;BME280;51139;45.626;6.850;2024-02-26T12:25:23;80261.03;;;1.36;71.28
64711;BME280;51139;45.626;6.850;2024-02-26T12:27:49;80251.19;;;0.99;77.37
64711;BME280;51139;45.626;6.850;2024-02-26T12:30:16;80245.75;;;1.60;73.55
64711;BME280;51139;45.626;6.850;2024-02-26T12:32:41;80250.81;;;1.30;72.90
64711;BME280;51139;45.626;6.850;2024-02-26T12:35:07;80245.50;;;1.38;71.68
64711;BME280;51139;45.626;6.850;2024-02-26T12:37:32;80251.34;;;1.84;71.82
64711;BME280;51139;45.626;6.850;2024-02-26T12:39:58;80249.63;;;2.53;71.20
64711;BME280;51139;45.626;6.850;2024-02-26T12:42:24;80242.72;;;1.91;67.96
64711;BME280;51139;45.626;6.850;2024-02-26T12:44:50;80247.06;;;2.16;66.92
64711;BME280;51139;45.626;6.850;2024-02-26T12:47:15;80247.84;;;2.09;64.90
64711;BME280;51139;45.626;6.850;2024-02-26T12:49:47;80247.66;;;2.34;65.01
64711;BME280;51139;45.626;6.850;2024-02-26T12:52:14;80252.22;;;2.43;62.68
64711;BME280;51139;45.626;6.850;2024-02-26T12:54:39;80257.78;;;2.20;62.90
64711;BME280;51139;45.626;6.850;2024-02-26T12:57:08;80257.06;;;2.00;63.70
64711;BME280;51139;45.626;6.850;2024-02-26T12:59:34;80255.97;;;2.03;61.13
64711;BME280;51139;45.626;6.850;2024-02-26T13:02:00;80257.44;;;2.43;59.64
64711;BME280;51139;45.626;6.850;2024-02-26T13:04:29;80269.84;;;2.06;59.81
64711;BME280;51139;45.626;6.850;2024-02-26T13:06:55;80249.44;;;2.31;60.92
64711;BME280;51139;45.626;6.850;2024-02-26T13:09:26;80241.47;;;2.39;60.46
64711;BME280;51139;45.626;6.850;2024-02-26T13:11:55;80246.19;;;2.60;60.96
64711;BME280;51139;45.626;6.850;2024-02-26T13:14:21;80248.13;;;2.70;60.76
64711;BME280;51139;45.626;6.850;2024-02-26T13:16:56;80239.88;;;2.63;59.97
64711;BME280;51139;45.626;6.850;2024-02-26T13:19:22;80236.09;;;1.80;61.74
64711;BME280;51139;45.626;6.850;2024-02-26T13:21:48;80228.44;;;1.65;62.98
64711;BME280;51139;45.626;6.850;2024-02-26T13:24:13;80231.41;;;1.24;64.51
64711;BME280;51139;45.626;6.850;2024-02-26T13:26:39;80237.69;;;1.38;67.05
64711;BME280;51139;45.626;6.850;2024-02-26T13:29:05;80214.50;;;1.80;65.54
64711;BME280;51139;45.626;6.850;2024-02-26T13:31:31;80212.44;;;1.78;65.58
64711;BME280;51139;45.626;6.850;2024-02-26T13:33:57;80224.44;;;1.54;65.10
64711;BME280;51139;45.626;6.850;2024-02-26T13:36:23;80224.16;;;1.50;65.92
64711;BME280;51139;45.626;6.850;2024-02-26T13:38:55;80215.22;;;1.90;65.63
64711;BME280;51139;45.626;6.850;2024-02-26T13:41:21;80217.91;;;2.19;66.37
64711;BME280;51139;45.626;6.850;2024-02-26T13:43:47;80216.72;;;1.83;65.43
64711;BME280;51139;45.626;6.850;2024-02-26T13:46:14;80222.44;;;1.72;67.59
64711;BME280;51139;45.626;6.850;2024-02-26T13:48:43;80222.44;;;1.72;69.88
64711;BME280;51139;45.626;6.850;2024-02-26T13:51:09;80217.84;;;1.90;67.47
64711;BME280;51139;45.626;6.850;2024-02-26T13:53:34;80218.38;;;1.51;69.35
64711;BME280;51139;45.626;6.850;2024-02-26T13:56:00;80228.31;;;2.00;69.38
64711;BME280;51139;45.626;6.850;2024-02-26T13:58:27;80229.63;;;1.81;69.06
64711;BME280;51139;45.626;6.850;2024-02-26T14:00:53;80220.06;;;1.94;71.22
64711;BME280;51139;45.626;6.850;2024-02-26T14:03:20;80241.84;;;1.79;65.28
64711;BME280;51139;45.626;6.850;2024-02-26T14:05:45;80247.78;;;2.26;67.18
64711;BME280;51139;45.626;6.850;2024-02-26T14:08:11;80249.59;;;1.96;69.45
64711;BME280;51139;45.626;6.850;2024-02-26T14:10:36;80252.34;;;1.98;65.00
64711;BME280;51139;45.626;6.850;2024-02-26T14:13:03;80259.28;;;2.13;65.40
64711;BME280;51139;45.626;6.850;2024-02-26T14:15:28;80268.16;;;2.00;64.20
64711;BME280;51139;45.626;6.850;2024-02-26T14:17:54;80270.66;;;2.45;64.33
64711;BME280;51139;45.626;6.850;2024-02-26T14:20:22;80262.34;;;2.19;63.26
64711;BME280;51139;45.626;6.850;2024-02-26T14:22:51;80267.50;;;2.57;64.59
64711;BME280;51139;45.626;6.850;2024-02-26T14:25:20;80279.13;;;2.73;60.22
64711;BME280;51139;45.626;6.850;2024-02-26T14:27:46;80269.41;;;2.46;61.83
64711;BME280;51139;45.626;6.850;2024-02-26T14:30:12;80274.59;;;3.33;61.73
64711;BME280;51139;45.626;6.850;2024-02-26T14:32:38;80268.16;;;2.38;62.96
64711;BME280;51139;45.626;6.850;2024-02-26T14:35:07;80262.81;;;2.45;63.39
64711;BME280;51139;45.626;6.850;2024-02-26T14:37:34;80266.75;;;2.27;62.22
64711;BME280;51139;45.626;6.850;2024-02-26T14:39:59;80274.53;;;2.54;60.46
64711;BME280;51139;45.626;6.850;2024-02-26T14:42:24;80270.94;;;1.75;64.74
64711;BME280;51139;45.626;6.850;2024-02-26T14:44:50;80256.56;;;1.84;63.98
64711;BME280;51139;45.626;6.850;2024-02-26T14:47:16;80253.44;;;1.30;67.90
64711;BME280;51139;45.626;6.850;2024-02-26T14:49:42;80260.22;;;1.71;67.35
64711;BME280;51139;45.626;6.850;2024-02-26T14:52:07;80264.38;;;1.01;69.71
64711;BME280;51139;45.626;6.850;2024-02-26T14:54:33;80253.81;;;1.82;68.55
64711;BME280;51139;45.626;6.850;2024-02-26T14:57:03;80261.00;;;1.91;63.62
64711;BME280;51139;45.626;6.850;2024-02-26T14:59:29;80267.50;;;1.72;64.22